Terminal Aerodrome Forecast
Issued by NWS

Current Version | Previous Version | Graphics & Text | Print | Product List | Glossary On
Versions: 1 2 3 4 5 6 7 8 9 10 11 12 13 14 15 16 17 18 19 20 21
000
FTUS41 KILN 161700
TAFLCK
TAF
KLCK 161731Z 1618/1718 25014G24KT 5SM -SHRA BR OVC014
     FM162200 26014G24KT P6SM OVC012
     FM170000 26014G24KT P6SM OVC008
     FM170800 27012G20KT P6SM OVC015=

USA.gov is the U.S. government's official web portal to all federal, state and local government web resources and services.